• Join FlightAware (Why Join?)
  • Login
  • US Flag 
04:17AM EDT


 

Airport Tracker/Info


-or-


 

Live Flight TrackerFlight Track Log ✈ ASQ5963 ✈ 06-Jul-2013 ✈ KPIT - KIAD

Flight Track Log - Related Links

Times and Time Zones

All times are in EDT time to prevent confusion due to time zone crossing. See the ASQ5963 flight status page for this flight to view local times or setup timezone preferences in your user account.

Time Position Orientation Groundspeed Altitude Reporting Facility
EDT Latitude Longitude Course Direction KTS MPH feet Rate Location/Type
05:58PM 40.3100 -79.8941 164° South  Level Estimated
05:58PM 40.3503 -80.2725 159° South 285 328 11,000  Level Cleveland Center
05:59PM 40.2493 -79.7815 162° South  Level Estimated
05:59PM 40.2731 -80.2294 157° South 299 344 14,100  Level Cleveland Center
06:00PM 40.1885 -79.6692 166° South  Level Estimated
06:00PM 40.1958 -80.1889 158° South 299 344 15,800  Level Cleveland Center
06:01PM 40.1276 -79.5571 161° South  Level Estimated
06:01PM 40.1039 -80.1406 158° South 322 371 17,400  Level Cleveland Center
06:02PM 40.0665 -79.4451 166° South  Level Estimated
06:02PM 40.0097 -80.0925 159° South 346 398 23,000  Level Cleveland Center
06:03PM 39.9178 -80.0472 159° South 357 411 21,900 -120 Descending Cleveland Center
06:04PM 39.8239 -79.9992 159° South 357 411 22,800 540 Climbing Cleveland Center
06:05PM 39.7275 -79.9244 149° Southeast 373 429 23,000 60 Climbing Cleveland Center
06:06PM 39.6703 -79.7847 118° Southeast 394 453 23,000  Level Cleveland Center
06:07PM 39.6172 -79.6425 116° Southeast 416 479 23,000  Level Cleveland Center
06:08PM 39.5511 -79.4728 117° Southeast 422 486 23,000  Level Washington Center
06:09PM 39.4933 -79.3297 118° Southeast 434 499 23,000  Level Washington Center
06:10PM 39.4314 -79.1681 116° Southeast 457 526 23,000 -60 Level Washington Center
06:11PM 39.4008 -79.0053 104° East 457 526 22,900 -1,320 Descending Washington Center
06:12PM 39.3739 -78.8483 102° East 462 532 20,400 -2,580 Descending Washington Center
06:13PM 39.3464 -78.7022 104° East 444 511 17,900 -2,400 Descending Washington Center
06:14PM 39.3247 -78.5669 102° East 408 470 15,600 -2,280 Descending Washington Center
06:15PM 39.2986 -78.4372 105° East 383 441 13,400 -2,100 Descending Washington Center
06:16PM 39.2828 -78.3133 99° East 361 415 11,400 -1,920 Descending Washington Center
06:17PM 39.2769 -78.2003 94° East 338 389 9,700 -1,620 Descending Washington Center
06:18PM 39.2689 -78.0956 96° East 311 358 8,300 -1,500 Descending Washington Center
06:19PM 39.2647 -77.9936 93° East 289 333 6,700 -1,560 Descending Washington Center
06:20PM 39.2561 -77.8967 97° East 279 321 5,200 -840 Descending Washington Center
06:21PM 39.2475 -77.8000 97° East 273 314 5,100 -120 Descending Washington Center
06:22PM 39.2408 -77.7033 95° East 273 314 5,000 -300 Descending Washington Center
06:23PM 39.2047 -77.6219 120° Southeast 260 299 4,600 -900 Descending Washington Center
06:25PM 39.1333 -77.5500 142° Southeast 222 255 2,900 -1,020 Descending Potomac TRACON
06:26PM 39.0833 -77.5000 142° Southeast 207 238 2,200 -780 Descending Potomac TRACON
06:27PM 39.0333 -77.4667 153° Southeast 155 178 1,400 -840 Descending Potomac TRACON